Terminal Aerodrome Forecast
Issued by NWS Glasgow, MT

Home | Current Version | Previous Version | Text Only | Print | Product List | Glossary On
Versions: 1 2 3 4 5 6 7 8 9 10 11 12 13 14
000
FTUS45 KGGW 271100
TAFGGW
TAF
KGGW 271134Z 2712/2812 VRB03KT P6SM VCSH BKN100
      TEMPO 2712/2714 -TSRA BKN050CB
     FM271800 VRB06KT 6SM -TSRA BKN090CB
     FM280200 VRB06KT P6SM VCSH BKN060=

USA.gov is the U.S. government's official web portal to all federal, state and local government web resources and services.